Time;durP1;ratioP1;P1;durP2;ratioP2;P2;SDS_P1;SDS_P2;PMS_P1;PMS_P2;Temp;Humidity;BMP_temperature;BMP_pressure;BME280_temperature;BME280_humidity;BME280_pressure;Samples;Min_cycle;Max_cycle;Signal;HPM_P1;HPM_P2
2024/03/14 00:00:24;;;;;;;;;;;;;;;2.22;100.00;100548.77;109497;1256;67572;-53
2024/03/14 00:02:54;;;;;;;;;;;;;;;2.22;100.00;100549.88;109470;1254;72709;-58
2024/03/14 00:05:22;;;;;;;;;;;;;;;2.19;100.00;100545.57;109474;1250;58994;-54
2024/03/14 00:07:49;;;;;;;;;;;;;;;2.16;100.00;100541.17;109515;1250;60769;-54
2024/03/14 00:10:17;;;;;;;;;;;;;;;2.15;100.00;100539.73;109511;1250;73367;-53
2024/03/14 00:12:46;;;;;;;;;;;;;;;2.13;100.00;100536.65;109503;1250;67529;-54
2024/03/14 00:15:15;;;;;;;;;;;;;;;2.10;100.00;100533.25;109476;1251;73408;-56
2024/03/14 00:17:46;;;;;;;;;;;;;;;2.07;100.00;100526.33;109446;1253;60027;-53
2024/03/14 00:20:14;;;;;;;;;;;;;;;2.05;100.00;100527.50;109501;1251;59957;-54
2024/03/14 00:22:42;;;;;;;;;;;;;;;2.02;100.00;100531.32;109506;1251;75175;-53
2024/03/14 00:25:12;;;;;;;;;;;;;;;2.02;100.00;100527.93;109475;1255;66915;-54
2024/03/14 00:27:42;;;;;;;;;;;;;;;2.02;100.00;100533.77;109491;1251;72699;-53
2024/03/14 00:30:16;;;;;;;;;;;;;;;2.01;100.00;100539.30;109505;1254;59320;-54
2024/03/14 00:32:44;;;;;;;;;;;;;;;2.02;100.00;100539.77;109520;1251;59959;-54
2024/03/14 00:35:13;;;;;;;;;;;;;;;2.02;100.00;100539.69;109418;1253;73403;-54
2024/03/14 00:37:40;;;;;;;;;;;;;;;2.03;100.00;100538.30;109533;1251;66903;-53
2024/03/14 00:40:08;;;;;;;;;;;;;;;2.02;100.00;100535.78;109509;1251;71451;-54
2024/03/14 00:42:42;;;;;;;;;;;;;;;2.02;100.00;100529.83;109485;1253;59443;-53
2024/03/14 00:45:10;;;;;;;;;;;;;;;2.00;100.00;100535.56;109449;1250;59503;-54
2024/03/14 00:47:37;;;;;;;;;;;;;;;2.01;100.00;100534.31;109591;1250;74716;-54
2024/03/14 00:50:11;;;;;;;;;;;;;;;2.02;100.00;100528.77;109545;1251;66025;-53
2024/03/14 00:52:40;;;;;;;;;;;;;;;2.03;100.00;100534.14;109440;1252;72764;-53
2024/03/14 00:55:09;;;;;;;;;;;;;;;2.05;100.00;100528.16;109449;1251;59064;-53
2024/03/14 00:57:38;;;;;;;;;;;;;;;2.06;100.00;100527.22;109547;1251;58953;-54
2024/03/14 01:00:13;;;;;;;;;;;;;;;2.04;100.00;100529.95;109485;1253;75114;-55
2024/03/14 01:02:43;;;;;;;;;;;;;;;1.97;100.00;100532.20;109474;1252;67008;-57
2024/03/14 01:05:11;;;;;;;;;;;;;;;1.89;100.00;100532.14;109506;1251;71212;-54
2024/03/14 01:07:39;;;;;;;;;;;;;;;1.83;100.00;100533.05;109487;1251;58963;-54
2024/03/14 01:10:07;;;;;;;;;;;;;;;1.76;100.00;100534.58;109530;1251;59408;-55
2024/03/14 01:12:35;;;;;;;;;;;;;;;1.68;100.00;100530.00;109479;1251;74751;-59
2024/03/14 01:15:06;;;;;;;;;;;;;;;1.59;100.00;100527.83;109501;1251;65411;-55
2024/03/14 01:17:34;;;;;;;;;;;;;;;1.51;100.00;100531.58;109500;1251;72716;-54
2024/03/14 01:20:09;;;;;;;;;;;;;;;1.43;100.00;100529.41;109488;1254;59582;-54
2024/03/14 01:22:38;;;;;;;;;;;;;;;1.36;100.00;100527.38;109451;1251;59799;-59
2024/03/14 01:25:06;;;;;;;;;;;;;;;1.30;100.00;100527.80;109527;1254;74783;-54
2024/03/14 01:27:33;;;;;;;;;;;;;;;1.25;100.00;100528.57;109518;1251;66951;-54
2024/03/14 01:30:01;;;;;;;;;;;;;;;1.19;100.00;100521.98;109505;1254;72723;-55
2024/03/14 01:32:28;;;;;;;;;;;;;;;1.14;100.00;100523.04;109466;1254;59718;-54
2024/03/14 01:34:56;;;;;;;;;;;;;;;1.11;100.00;100522.77;109456;1251;59803;-54
2024/03/14 01:37:23;;;;;;;;;;;;;;;1.10;100.00;100521.45;109514;1252;74779;-55
2024/03/14 01:39:51;;;;;;;;;;;;;;;1.09;100.00;100516.56;109525;1251;67556;-54
2024/03/14 01:42:19;;;;;;;;;;;;;;;1.06;100.00;100519.34;109485;1251;72599;-54
2024/03/14 01:45:04;;;;;;;;;;;;;;;1.04;100.00;100519.50;109511;1251;60957;-54
2024/03/14 01:47:33;;;;;;;;;;;;;;;1.02;100.00;100522.22;109516;1251;59045;-54
2024/03/14 01:50:05;;;;;;;;;;;;;;;1.00;100.00;100518.45;109474;1251;74713;-54
2024/03/14 01:52:34;;;;;;;;;;;;;;;0.99;100.00;100521.43;109347;1251;230705;-58
2024/03/14 01:55:02;;;;;;;;;;;;;;;0.98;100.00;100519.80;109548;1251;71447;-54
2024/03/14 01:57:30;;;;;;;;;;;;;;;0.97;100.00;100515.73;109509;1254;59578;-54
2024/03/14 02:00:00;;;;;;;;;;;;;;;0.94;100.00;100516.00;109515;1251;59898;-54
2024/03/14 02:02:37;;;;;;;;;;;;;;;0.91;100.00;100519.44;109505;1251;74734;-54
2024/03/14 02:05:10;;;;;;;;;;;;;;;0.90;100.00;100518.52;109582;1251;67524;-53
2024/03/14 02:07:38;;;;;;;;;;;;;;;0.88;100.00;100517.11;109519;1251;72713;-53
2024/03/14 02:10:06;;;;;;;;;;;;;;;0.86;100.00;100518.45;109516;1251;59675;-54
2024/03/14 02:12:34;;;;;;;;;;;;;;;0.85;100.00;100513.95;109505;1251;59360;-55
2024/03/14 02:15:02;;;;;;;;;;;;;;;0.84;100.00;100521.73;109520;1251;73404;-55
2024/03/14 02:17:30;;;;;;;;;;;;;;;0.82;100.00;100524.62;109547;1251;67458;-54
2024/03/14 02:19:58;;;;;;;;;;;;;;;0.80;100.00;100528.36;109477;1251;72757;-54
2024/03/14 02:22:27;;;;;;;;;;;;;;;0.79;100.00;100527.55;109473;1251;60973;-54
2024/03/14 02:24:54;;;;;;;;;;;;;;;0.78;100.00;100535.13;109488;1251;60700;-55
2024/03/14 02:27:22;;;;;;;;;;;;;;;0.77;100.00;100537.50;109545;1251;74729;-55
2024/03/14 02:29:49;;;;;;;;;;;;;;;0.77;100.00;100540.74;109504;1251;66985;-54
2024/03/14 02:32:18;;;;;;;;;;;;;;;0.78;100.00;100541.67;109467;1251;73301;-54
2024/03/14 02:34:45;;;;;;;;;;;;;;;0.79;100.00;100538.86;109469;1250;59588;-55
2024/03/14 02:37:13;;;;;;;;;;;;;;;0.80;100.00;100538.46;109472;1255;60370;-55
2024/03/14 02:39:40;;;;;;;;;;;;;;;0.80;100.00;100538.12;109503;1251;76856;-55
2024/03/14 02:42:10;;;;;;;;;;;;;;;0.79;100.00;100535.79;109541;1251;65509;-55
2024/03/14 02:44:38;;;;;;;;;;;;;;;0.78;100.00;100539.22;109491;1254;71471;-55
2024/03/14 02:47:08;;;;;;;;;;;;;;;0.80;100.00;100536.23;109470;1251;59439;-56
2024/03/14 02:49:37;;;;;;;;;;;;;;;0.79;100.00;100541.40;109517;1251;59394;-56
2024/03/14 02:52:06;;;;;;;;;;;;;;;0.78;100.00;100540.11;109491;1255;74630;-55
2024/03/14 02:54:33;;;;;;;;;;;;;;;0.79;100.00;100542.77;109520;1251;67077;-55
2024/03/14 02:57:01;;;;;;;;;;;;;;;0.80;100.00;100549.90;109427;1251;72745;-56
2024/03/14 02:59:30;;;;;;;;;;;;;;;0.81;100.00;100549.82;109502;1255;59062;-57
2024/03/14 03:01:58;;;;;;;;;;;;;;;0.82;100.00;100545.61;109495;1251;59873;-56
2024/03/14 03:04:30;;;;;;;;;;;;;;;0.82;100.00;100549.20;109499;1251;73738;-56
2024/03/14 03:07:05;;;;;;;;;;;;;;;0.81;100.00;100551.71;109495;1251;65634;-56
2024/03/14 03:09:37;;;;;;;;;;;;;;;0.80;100.00;100550.96;109503;1252;72728;-58
2024/03/14 03:12:05;;;;;;;;;;;;;;;0.81;100.00;100556.16;109462;1252;59222;-56
2024/03/14 03:14:32;;;;;;;;;;;;;;;0.80;100.00;100559.27;109522;1251;59910;-57
2024/03/14 03:17:00;;;;;;;;;;;;;;;0.81;100.00;100565.55;109482;1251;74746;-57
2024/03/14 03:19:27;;;;;;;;;;;;;;;0.83;100.00;100570.23;109419;1251;66925;-58
2024/03/14 03:21:58;;;;;;;;;;;;;;;0.85;100.00;100576.42;109417;1251;72707;-57
2024/03/14 03:24:25;;;;;;;;;;;;;;;0.87;100.00;100579.14;109481;1251;59737;-56
2024/03/14 03:26:53;;;;;;;;;;;;;;;0.88;100.00;100578.75;109446;1251;58994;-56
2024/03/14 03:29:21;;;;;;;;;;;;;;;0.88;100.00;100585.08;109532;1252;74714;-56
2024/03/14 03:31:49;;;;;;;;;;;;;;;0.90;100.00;100585.75;109456;1251;65442;-57
2024/03/14 03:34:23;;;;;;;;;;;;;;;0.91;100.00;100583.61;109448;1251;71458;-57
2024/03/14 03:36:51;;;;;;;;;;;;;;;0.94;100.00;100576.44;109445;1251;60205;-56
2024/03/14 03:39:19;;;;;;;;;;;;;;;0.95;100.00;100576.80;109505;1250;59003;-57
2024/03/14 03:41:46;;;;;;;;;;;;;;;0.95;100.00;100580.22;109509;1251;74598;-56
2024/03/14 03:44:14;;;;;;;;;;;;;;;0.96;100.00;100581.90;109470;1256;66978;-62
2024/03/14 03:46:42;;;;;;;;;;;;;;;0.95;100.00;100576.15;109469;1252;72701;-56
2024/03/14 03:49:10;;;;;;;;;;;;;;;0.94;100.00;100576.54;109464;1250;59904;-56
2024/03/14 03:51:38;;;;;;;;;;;;;;;0.94;100.00;100579.14;109521;1251;59883;-55
2024/03/14 03:54:05;;;;;;;;;;;;;;;0.94;100.00;100585.63;109530;1251;74765;-56
2024/03/14 03:56:33;;;;;;;;;;;;;;;0.95;100.00;100583.31;109456;1251;66039;-62
2024/03/14 03:59:01;;;;;;;;;;;;;;;0.96;100.00;100583.09;109481;1251;72731;-56
2024/03/14 04:01:28;;;;;;;;;;;;;;;0.95;100.00;100584.14;109478;1251;59669;-57
2024/03/14 04:03:56;;;;;;;;;;;;;;;0.94;100.00;100586.11;109505;1251;59493;-56
2024/03/14 04:06:23;;;;;;;;;;;;;;;0.94;100.00;100577.06;109471;1250;73465;-58
2024/03/14 04:08:52;;;;;;;;;;;;;;;0.94;100.00;100587.20;109508;1251;65951;-55
2024/03/14 04:11:21;;;;;;;;;;;;;;;0.94;100.00;100588.38;109510;1251;71438;-58
2024/03/14 04:13:48;;;;;;;;;;;;;;;0.94;100.00;100592.33;109468;1251;59364;-56
2024/03/14 04:16:16;;;;;;;;;;;;;;;0.93;100.00;100595.79;109460;1251;59311;-57
2024/03/14 04:18:44;;;;;;;;;;;;;;;0.92;100.00;100592.98;109476;1251;75309;-56
2024/03/14 04:21:16;;;;;;;;;;;;;;;0.92;100.00;100595.19;109488;1251;65122;-56
2024/03/14 04:23:45;;;;;;;;;;;;;;;0.93;100.00;100593.41;109489;1251;71427;-56
2024/03/14 04:26:15;;;;;;;;;;;;;;;0.95;100.00;100597.39;109475;1251;59456;-61
2024/03/14 04:28:44;;;;;;;;;;;;;;;0.95;100.00;100594.33;109522;1251;58861;-56
2024/03/14 04:31:12;;;;;;;;;;;;;;;0.95;100.00;100592.52;109479;1251;74680;-55
2024/03/14 04:33:39;;;;;;;;;;;;;;;0.97;100.00;100593.09;109504;1251;67420;-57
2024/03/14 04:36:09;;;;;;;;;;;;;;;0.98;100.00;100599.52;109424;1251;71412;-56
2024/03/14 04:38:38;;;;;;;;;;;;;;;0.99;100.00;100603.05;109409;1251;59615;-58
2024/03/14 04:41:14;;;;;;;;;;;;;;;1.00;100.00;100605.23;109519;1251;58918;-56
2024/03/14 04:43:46;;;;;;;;;;;;;;;1.02;100.00;100609.19;109481;1251;74710;-57
2024/03/14 04:46:16;;;;;;;;;;;;;;;1.03;100.00;100610.16;109534;1251;67231;-56
2024/03/14 04:48:45;;;;;;;;;;;;;;;1.04;100.00;100616.42;109507;1251;72700;-56
2024/03/14 04:51:13;;;;;;;;;;;;;;;1.04;100.00;100620.53;109518;1251;60905;-56
2024/03/14 04:53:41;;;;;;;;;;;;;;;1.05;100.00;100622.81;109477;1251;59987;-58
2024/03/14 04:56:08;;;;;;;;;;;;;;;1.08;100.00;100631.02;109478;1251;74622;-61
2024/03/14 04:58:37;;;;;;;;;;;;;;;1.08;100.00;100635.08;109517;1251;66828;-57
2024/03/14 05:01:05;;;;;;;;;;;;;;;1.07;100.00;100634.64;109503;1251;72749;-56
2024/03/14 05:03:33;;;;;;;;;;;;;;;1.09;100.00;100642.88;109534;1251;59816;-57
2024/03/14 05:06:03;;;;;;;;;;;;;;;1.10;100.00;100649.84;109514;1251;58960;-62
2024/03/14 05:08:31;;;;;;;;;;;;;;;1.11;100.00;100653.19;109465;1251;75210;-56
2024/03/14 05:10:58;;;;;;;;;;;;;;;1.14;100.00;100659.28;109515;1251;67103;-57
2024/03/14 05:13:26;;;;;;;;;;;;;;;1.16;100.00;100658.93;109516;1250;73160;-56
2024/03/14 05:15:55;;;;;;;;;;;;;;;1.21;100.00;100667.55;109500;1251;59655;-61
2024/03/14 05:18:23;;;;;;;;;;;;;;;1.25;100.00;100673.73;109517;1251;60420;-57
2024/03/14 05:20:53;;;;;;;;;;;;;;;1.30;100.00;100673.86;109635;1251;74663;-56
2024/03/14 05:23:21;;;;;;;;;;;;;;;1.34;100.00;100681.45;109486;1251;65715;-57
2024/03/14 05:25:48;;;;;;;;;;;;;;;1.36;100.00;100684.39;109553;1251;71430;-57
2024/03/14 05:28:19;;;;;;;;;;;;;;;1.38;100.00;100688.66;109558;1251;59640;-57
2024/03/14 05:30:46;;;;;;;;;;;;;;;1.39;100.00;100692.02;109571;1251;59139;-56
2024/03/14 05:33:14;;;;;;;;;;;;;;;1.40;100.00;100694.33;109637;1251;74709;-57
2024/03/14 05:35:41;;;;;;;;;;;;;;;1.43;100.00;100698.12;109513;1251;66417;-56
2024/03/14 05:38:09;;;;;;;;;;;;;;;1.45;100.00;100702.40;109514;1250;71167;-57
2024/03/14 05:40:37;;;;;;;;;;;;;;;1.47;100.00;100705.64;109505;1251;59597;-57
2024/03/14 05:43:05;;;;;;;;;;;;;;;1.51;100.00;100704.90;109586;1251;58971;-57
2024/03/14 05:45:34;;;;;;;;;;;;;;;1.52;100.00;100704.09;109590;1250;74690;-56
2024/03/14 05:48:09;;;;;;;;;;;;;;;1.54;100.00;100703.63;109499;1251;67441;-57
2024/03/14 05:50:37;;;;;;;;;;;;;;;1.56;100.00;100701.23;109423;1251;72734;-57
2024/03/14 05:53:05;;;;;;;;;;;;;;;1.59;100.00;100706.30;109505;1251;60880;-57
2024/03/14 05:55:37;;;;;;;;;;;;;;;1.61;100.00;100712.81;109477;1251;59865;-57
2024/03/14 05:58:06;;;;;;;;;;;;;;;1.63;100.00;100709.23;109498;1251;74781;-56
2024/03/14 06:00:34;;;;;;;;;;;;;;;1.68;100.00;100711.80;109558;1251;66919;-57
2024/03/14 06:03:02;;;;;;;;;;;;;;;1.71;100.00;100716.72;109581;1251;72773;-57
2024/03/14 06:05:30;;;;;;;;;;;;;;;1.74;100.00;100717.86;109514;1251;61784;-56
2024/03/14 06:07:58;;;;;;;;;;;;;;;1.78;100.00;100725.30;109575;1251;60629;-56
2024/03/14 06:10:26;;;;;;;;;;;;;;;1.82;100.00;100719.84;109443;1251;75579;-59
2024/03/14 06:12:54;;;;;;;;;;;;;;;1.86;100.00;100727.08;109522;1251;67796;-57
2024/03/14 06:15:21;;;;;;;;;;;;;;;1.90;100.00;100733.63;109481;1251;71129;-57
2024/03/14 06:17:51;;;;;;;;;;;;;;;1.93;100.00;100736.80;109503;1251;59802;-57
2024/03/14 06:20:22;;;;;;;;;;;;;;;1.98;100.00;100737.34;109472;1251;60350;-60
2024/03/14 06:22:49;;;;;;;;;;;;;;;2.02;100.00;100741.69;109518;1251;73410;-57
2024/03/14 06:25:17;;;;;;;;;;;;;;;2.06;100.00;100744.61;109525;1251;65607;-56
2024/03/14 06:27:45;;;;;;;;;;;;;;;2.10;100.00;100742.60;109492;1251;74630;-57
2024/03/14 06:30:13;;;;;;;;;;;;;;;2.10;100.00;100746.32;109479;1250;63902;-59
2024/03/14 06:32:49;;;;;;;;;;;;;;;2.14;100.00;100745.86;109452;1254;62003;-57
2024/03/14 06:35:21;;;;;;;;;;;;;;;2.15;100.00;100747.31;109482;1250;78846;-57
2024/03/14 06:37:53;;;;;;;;;;;;;;;2.17;100.00;100743.27;109481;1251;67077;-58
2024/03/14 06:40:22;;;;;;;;;;;;;;;2.17;100.00;100745.33;109373;1253;73591;-59
2024/03/14 06:42:50;;;;;;;;;;;;;;;2.21;100.00;100742.07;109409;1251;62160;-57
2024/03/14 06:45:19;;;;;;;;;;;;;;;2.27;100.00;100749.66;109473;1251;60917;-58
2024/03/14 06:47:47;;;;;;;;;;;;;;;2.33;100.00;100752.30;109505;1251;76712;-58
2024/03/14 06:50:15;;;;;;;;;;;;;;;2.40;100.00;100760.36;109458;1251;67059;-61
2024/03/14 06:52:43;;;;;;;;;;;;;;;2.43;100.00;100766.65;109528;1253;72791;-58
2024/03/14 06:55:12;;;;;;;;;;;;;;;2.43;100.00;100766.63;109450;1251;59927;-57
2024/03/14 06:57:40;;;;;;;;;;;;;;;2.44;100.00;100772.59;109499;1251;61840;-57
2024/03/14 07:00:16;;;;;;;;;;;;;;;2.47;100.00;100772.89;109540;1251;75587;-61
2024/03/14 07:02:46;;;;;;;;;;;;;;;2.48;100.00;100774.66;109610;1251;67978;-57
2024/03/14 07:05:17;;;;;;;;;;;;;;;2.50;100.00;100774.50;109467;1251;73591;-57
2024/03/14 07:07:45;;;;;;;;;;;;;;;2.55;100.00;100772.23;109534;1251;61940;-57
2024/03/14 07:10:14;;;;;;;;;;;;;;;2.60;100.00;100772.36;109430;1251;61316;-58
2024/03/14 07:12:43;;;;;;;;;;;;;;;2.65;100.00;100772.34;109517;1251;77727;-57
2024/03/14 07:15:12;;;;;;;;;;;;;;;2.67;100.00;100771.24;109511;1250;68805;-57
2024/03/14 07:17:40;;;;;;;;;;;;;;;2.66;100.00;100767.91;109532;1252;75471;-56
2024/03/14 07:20:33;;;;;;;;;;;;;;;2.63;100.00;100771.45;109524;1251;63073;-61
2024/03/14 07:23:02;;;;;;;;;;;;;;;2.59;100.00;100773.30;109614;1251;63031;-58
2024/03/14 07:25:30;;;;;;;;;;;;;;;2.61;100.00;100773.80;109545;1251;75679;-58
2024/03/14 07:27:58;;;;;;;;;;;;;;;2.62;100.00;100777.73;109461;1253;70627;-58
2024/03/14 07:30:27;;;;;;;;;;;;;;;2.60;100.00;100769.65;109492;1253;74822;-59
2024/03/14 07:32:55;;;;;;;;;;;;;;;2.57;100.00;100772.94;109521;1250;62252;-57
2024/03/14 07:35:23;;;;;;;;;;;;;;;2.57;100.00;100774.64;109533;1251;61661;-58
2024/03/14 07:37:51;;;;;;;;;;;;;;;2.55;100.00;100776.34;109521;1251;76751;-62
2024/03/14 07:40:26;;;;;;;;;;;;;;;2.53;100.00;100778.72;109549;1251;68274;-58
2024/03/14 07:42:53;;;;;;;;;;;;;;;2.54;100.00;100784.46;109521;1251;75763;-58
2024/03/14 07:45:23;;;;;;;;;;;;;;;2.56;100.00;100788.81;109462;1251;62564;-58
2024/03/14 07:47:54;;;;;;;;;;;;;;;2.55;100.00;100783.23;109515;1251;59568;-62
2024/03/14 07:50:22;;;;;;;;;;;;;;;2.56;100.00;100782.12;109577;1251;76682;-58
2024/03/14 07:52:54;;;;;;;;;;;;;;;2.60;100.00;100781.30;109498;1251;69267;-58
2024/03/14 07:55:42;;;;;;;;;;;;;;;2.66;100.00;100783.73;109509;1250;74187;-62
2024/03/14 07:58:10;;;;;;;;;;;;;;;2.70;100.00;100790.83;109472;1253;62408;-58
2024/03/14 08:00:37;;;;;;;;;;;;;;;2.72;100.00;100796.18;109488;1251;59654;-58
2024/03/14 08:03:05;;;;;;;;;;;;;;;2.72;100.00;100796.48;109480;1250;74958;-59
2024/03/14 08:05:33;;;;;;;;;;;;;;;2.76;100.00;100791.57;109449;1250;69850;-62
2024/03/14 08:08:01;;;;;;;;;;;;;;;2.84;100.00;100798.48;109473;1251;73847;-58
2024/03/14 08:10:32;;;;;;;;;;;;;;;2.90;100.00;100800.56;109475;1250;62030;-58
2024/03/14 08:12:59;;;;;;;;;;;;;;;2.89;100.00;100796.17;109486;1251;63137;-57
2024/03/14 08:15:36;;;;;;;;;;;;;;;2.89;100.00;100796.38;109469;1251;76788;-62
2024/03/14 08:18:11;;;;;;;;;;;;;;;2.94;100.00;100794.96;109544;1251;69295;-58
2024/03/14 08:20:40;;;;;;;;;;;;;;;2.97;100.00;100795.19;109438;1252;73429;-58
2024/03/14 08:23:08;;;;;;;;;;;;;;;3.00;100.00;100794.48;109467;1251;64299;-59
2024/03/14 08:25:41;;;;;;;;;;;;;;;3.01;100.00;100797.30;109438;1251;61262;-58
2024/03/14 08:28:11;;;;;;;;;;;;;;;3.04;100.00;100799.33;109518;1253;76877;-57
2024/03/14 08:30:44;;;;;;;;;;;;;;;3.08;100.00;100792.66;109488;1251;67632;-57
2024/03/14 08:33:15;;;;;;;;;;;;;;;3.17;100.00;100793.80;109468;1251;74123;-60
2024/03/14 08:35:43;;;;;;;;;;;;;;;3.27;100.00;100801.63;109489;1251;63462;-58
2024/03/14 08:38:13;;;;;;;;;;;;;;;3.32;100.00;100800.73;109545;1252;63105;-58
2024/03/14 08:40:42;;;;;;;;;;;;;;;3.34;100.00;100800.05;109493;1251;76749;-57
2024/03/14 08:43:13;;;;;;;;;;;;;;;3.36;100.00;100795.04;109487;1250;69030;-61
2024/03/14 08:45:40;;;;;;;;;;;;;;;3.36;100.00;100796.59;109461;1251;73774;-57
2024/03/14 08:48:09;;;;;;;;;;;;;;;3.35;100.00;100791.03;109471;1251;63154;-57
2024/03/14 08:50:44;;;;;;;;;;;;;;;3.35;100.00;100794.96;109577;1251;61299;-57
2024/03/14 08:53:15;;;;;;;;;;;;;;;3.33;100.00;100799.24;109570;1250;76639;-57
2024/03/14 08:55:55;;;;;;;;;;;;;;;3.32;100.00;100797.75;109610;1250;68965;-57
2024/03/14 08:58:25;;;;;;;;;;;;;;;3.34;100.00;100804.30;109613;1250;72913;-58
2024/03/14 09:01:03;;;;;;;;;;;;;;;3.36;100.00;100809.13;109564;1250;63121;-57
2024/03/14 09:03:31;;;;;;;;;;;;;;;3.35;100.00;100807.19;109488;1251;62054;-58
2024/03/14 09:05:58;;;;;;;;;;;;;;;3.28;100.00;100808.96;109512;1251;75399;-58
2024/03/14 09:08:26;;;;;;;;;;;;;;;3.21;100.00;100813.63;109474;1251;69199;-63
2024/03/14 09:10:54;;;;;;;;;;;;;;;3.16;100.00;100816.02;109439;1251;73484;-59
2024/03/14 09:13:25;;;;;;;;;;;;;;;3.12;100.00;100815.02;109472;1251;61796;-59
2024/03/14 09:15:53;;;;;;;;;;;;;;;3.09;100.00;100814.06;109545;1251;61341;-58
2024/03/14 09:18:24;;;;;;;;;;;;;;;3.09;100.00;100810.73;109434;1251;75870;-58
2024/03/14 09:20:55;;;;;;;;;;;;;;;3.12;100.00;100810.16;109508;1251;69529;-57
2024/03/14 09:23:29;;;;;;;;;;;;;;;3.13;100.00;100811.61;109505;1251;74883;-57
2024/03/14 09:25:57;;;;;;;;;;;;;;;3.16;100.00;100819.09;109418;1251;62890;-58
2024/03/14 09:28:26;;;;;;;;;;;;;;;3.18;100.00;100826.19;109436;1251;60159;-58
2024/03/14 09:30:57;;;;;;;;;;;;;;;3.19;100.00;100822.70;109538;1251;76725;-58
2024/03/14 09:33:27;;;;;;;;;;;;;;;3.19;100.00;100830.27;109493;1251;70681;-58
2024/03/14 09:35:55;;;;;;;;;;;;;;;3.20;100.00;100826.29;109450;1251;74906;-59
2024/03/14 09:38:22;;;;;;;;;;;;;;;3.22;100.00;100826.23;109386;1251;61883;-62
2024/03/14 09:40:50;;;;;;;;;;;;;;;3.27;100.00;100826.51;109456;1251;61985;-57
2024/03/14 09:43:23;;;;;;;;;;;;;;;3.32;100.00;100829.71;109483;1251;76778;-57
2024/03/14 09:45:52;;;;;;;;;;;;;;;3.36;100.00;100822.01;109490;1251;67979;-57
2024/03/14 09:48:19;;;;;;;;;;;;;;;3.39;100.00;100829.00;109422;1253;75415;-59
2024/03/14 09:50:51;;;;;;;;;;;;;;;3.43;100.00;100827.81;109317;1251;62922;-57
2024/03/14 09:53:26;;;;;;;;;;;;;;;3.50;100.00;100829.02;109493;1251;62283;-57
2024/03/14 09:55:54;;;;;;;;;;;;;;;3.57;100.00;100826.52;109510;1251;76652;-57
2024/03/14 09:58:22;;;;;;;;;;;;;;;3.65;100.00;100825.20;109466;1251;68719;-56
2024/03/14 10:00:49;;;;;;;;;;;;;;;3.71;100.00;100832.63;109501;1251;74194;-58
2024/03/14 10:03:19;;;;;;;;;;;;;;;3.71;100.00;100830.70;109416;1251;62482;-57
2024/03/14 10:05:52;;;;;;;;;;;;;;;3.76;100.00;100832.06;109498;1251;63015;-57
2024/03/14 10:08:21;;;;;;;;;;;;;;;3.78;100.00;100832.92;109402;1251;76081;-56
2024/03/14 10:10:51;;;;;;;;;;;;;;;3.79;100.00;100825.09;109493;1251;69029;-56
2024/03/14 10:13:25;;;;;;;;;;;;;;;3.82;100.00;100831.00;109470;1251;73715;-57
2024/03/14 10:15:54;;;;;;;;;;;;;;;3.86;100.00;100827.77;109469;1251;63287;-57
2024/03/14 10:18:25;;;;;;;;;;;;;;;3.89;100.00;100825.98;109484;1253;60867;-56
2024/03/14 10:20:53;;;;;;;;;;;;;;;3.93;100.00;100827.35;109523;1251;76704;-55
2024/03/14 10:23:21;;;;;;;;;;;;;;;3.98;100.00;100828.89;109620;1250;67552;-56
2024/03/14 10:25:53;;;;;;;;;;;;;;;3.98;100.00;100827.45;109457;1251;74355;-56
2024/03/14 10:28:28;;;;;;;;;;;;;;;3.99;100.00;100822.77;109429;1251;62272;-56
2024/03/14 10:31:02;;;;;;;;;;;;;;;3.98;100.00;100826.63;109494;1251;60903;-56
2024/03/14 10:33:30;;;;;;;;;;;;;;;3.99;100.00;100825.64;109347;1251;77013;-55
2024/03/14 10:35:58;;;;;;;;;;;;;;;4.00;100.00;100825.42;109458;1251;67316;-55
2024/03/14 10:38:26;;;;;;;;;;;;;;;3.99;100.00;100818.95;109416;1251;73722;-55
2024/03/14 10:40:57;;;;;;;;;;;;;;;4.01;100.00;100820.00;109492;1253;63224;-57
2024/03/14 10:43:25;;;;;;;;;;;;;;;4.07;100.00;100822.80;109470;1251;60601;-56
2024/03/14 10:45:53;;;;;;;;;;;;;;;4.12;100.00;100827.64;109393;1252;77330;-60
2024/03/14 10:48:22;;;;;;;;;;;;;;;4.19;100.00;100819.91;109494;1251;68268;-56
2024/03/14 10:50:50;;;;;;;;;;;;;;;4.23;100.00;100826.61;109476;1251;75754;-57
2024/03/14 10:53:20;;;;;;;;;;;;;;;4.25;100.00;100824.73;109435;1251;61916;-56
2024/03/14 10:55:47;;;;;;;;;;;;;;;4.27;100.00;100824.89;109418;1251;61318;-56
2024/03/14 10:58:15;;;;;;;;;;;;;;;4.29;100.00;100819.91;109483;1251;75625;-55
2024/03/14 11:00:45;;;;;;;;;;;;;;;4.33;100.00;100818.21;109539;1250;68811;-56
2024/03/14 11:03:18;;;;;;;;;;;;;;;4.38;100.00;100818.95;109476;1252;75106;-55
2024/03/14 11:05:48;;;;;;;;;;;;;;;4.48;100.00;100815.95;109436;1251;63452;-59
2024/03/14 11:08:16;;;;;;;;;;;;;;;4.58;100.00;100815.56;109488;1250;61985;-56
2024/03/14 11:10:43;;;;;;;;;;;;;;;4.69;100.00;100811.86;109446;1251;77068;-55
2024/03/14 11:13:11;;;;;;;;;;;;;;;4.81;100.00;100814.29;109457;1250;69350;-56
2024/03/14 11:15:42;;;;;;;;;;;;;;;4.89;100.00;100814.11;109482;1250;75096;-59
2024/03/14 11:18:13;;;;;;;;;;;;;;;4.93;100.00;100816.00;109479;1251;63130;-55
2024/03/14 11:20:43;;;;;;;;;;;;;;;5.00;100.00;100816.29;109505;1251;61820;-55
2024/03/14 11:23:12;;;;;;;;;;;;;;;5.03;100.00;100814.09;109476;1251;75890;-55
2024/03/14 11:25:42;;;;;;;;;;;;;;;5.05;100.00;100816.72;109391;1253;69226;-60
2024/03/14 11:28:12;;;;;;;;;;;;;;;5.04;100.00;100821.95;109364;1251;74782;-56
2024/03/14 11:30:49;;;;;;;;;;;;;;;5.01;100.00;100825.67;109503;1251;62808;-56
2024/03/14 11:33:17;;;;;;;;;;;;;;;4.97;100.00;100818.45;109562;1250;61908;-55
2024/03/14 11:35:47;;;;;;;;;;;;;;;4.96;100.00;100815.55;109456;1251;76812;-56
2024/03/14 11:38:15;;;;;;;;;;;;;;;4.98;100.00;100818.52;109505;1251;67814;-55
2024/03/14 11:40:43;;;;;;;;;;;;;;;4.99;100.00;100815.81;109478;1251;74935;-55
2024/03/14 11:43:20;;;;;;;;;;;;;;;5.00;100.00;100816.10;109448;1251;62674;-55
2024/03/14 11:45:53;;;;;;;;;;;;;;;5.02;100.00;100815.55;109547;1250;60682;-56
2024/03/14 11:48:23;;;;;;;;;;;;;;;5.02;100.00;100813.48;109465;1250;76250;-55
2024/03/14 11:50:55;;;;;;;;;;;;;;;5.05;100.00;100813.23;109594;1251;70944;-56
2024/03/14 11:53:23;;;;;;;;;;;;;;;5.13;100.00;100820.13;109543;1250;74827;-58
2024/03/14 11:55:52;;;;;;;;;;;;;;;5.17;100.00;100817.36;109422;1252;62763;-55
2024/03/14 11:58:32;;;;;;;;;;;;;;;5.19;100.00;100813.09;109555;1250;61742;-55
2024/03/14 12:01:00;;;;;;;;;;;;;;;5.22;100.00;100809.52;109596;1250;76843;-55
2024/03/14 12:03:28;;;;;;;;;;;;;;;5.30;100.00;100811.90;109560;1250;69520;-55
2024/03/14 12:05:57;;;;;;;;;;;;;;;5.40;100.00;100802.44;109462;1251;73634;-55
2024/03/14 12:08:26;;;;;;;;;;;;;;;5.45;100.00;100805.38;109543;1251;62489;-56
2024/03/14 12:10:54;;;;;;;;;;;;;;;5.52;100.00;100807.94;109502;1251;61032;-56
2024/03/14 12:13:26;;;;;;;;;;;;;;;5.54;100.00;100803.77;109445;1251;76877;-56
2024/03/14 12:15:58;;;;;;;;;;;;;;;5.57;100.00;100803.68;109437;1251;68231;-55
2024/03/14 12:18:27;;;;;;;;;;;;;;;5.64;100.00;100804.90;109460;1251;76192;-55
2024/03/14 12:20:56;;;;;;;;;;;;;;;5.71;100.00;100805.50;109549;1250;63323;-55
2024/03/14 12:23:24;;;;;;;;;;;;;;;5.80;100.00;100803.30;109472;1251;61678;-54
2024/03/14 12:25:53;;;;;;;;;;;;;;;5.87;100.00;100803.90;109512;1251;77598;-55
2024/03/14 12:28:21;;;;;;;;;;;;;;;5.95;100.00;100806.83;109562;1250;69327;-55
2024/03/14 12:30:56;;;;;;;;;;;;;;;6.01;100.00;100803.91;109562;1251;74791;-56
2024/03/14 12:33:27;;;;;;;;;;;;;;;6.06;100.00;100805.95;109575;1251;63781;-55
2024/03/14 12:35:55;;;;;;;;;;;;;;;6.10;100.00;100803.01;109502;1250;62757;-55